logo
Search for airport 
image banner adimage banner adimage banner ad
image banner ad

MRLB - Daniel Oduber Intl

Located in Daniel Oduber Quiros, Costa Rica

ICAO - MRLB, IATA - LIR

Data provided by Airmate  

General information

Coordinates: N10°35'36" W85°32'40"
Elevation is 269 feet MSL.
Magnetic variation is -2° East
View others Airports in Guanacaste

Operational data

Special qualification required
Current time UTC:
Current local time:
Weather
TAF: MRLB 150525Z 1506/1606 08017G30KT 9999 FEW045 TX36/1520Z TN24/1511Z
View NOTAMs / SUP AIP / TFR affecting this airport [VIEW]
Communications frequencies: [VIEW]

Runways:

RWY identifierQFULength (ft)Width (ft)SurfaceLDA (ft)
0770°9012148ASP
25250°9012148ASP

Airport contact information

Address: Daniel Oduber Quiros Costa Rica

Satellite view of MRLB